CheckWX is a tool to help pilots better visualize weather data.  It is not intended as a substitute for an official pre-flight weather briefing.

19:08:40 UTC

KLIT METAR
Bill and Hillary Clinton National / Adams Field Airport
Little Rock, Arkansas, USA
Current

30 mins ago

KLIT 221839Z 08011KT 2SM RA BR OVC006 06/05 A3011 RMK AO2 P0006 T00610050
Observed
Feb-22 @ 18:39 UTC
Wind
  • 080° at 11 KTS
Visibility
2 SM
Flight Rules
IFR
Conditions
Rain, Mist
Cloud Levels
  • Overcast at 600' AGL
Temperature
C / 43°F
Dewpoint
C / 41°F
Humidity
93%
Altimeter
30.11" Hg
Pressure
1019.62 hPa
Current Rain
0.06"
Previous

42 mins ago

KLIT 221827Z COR 10013KT 1 3/4SM RA BR OVC006 06/05 A3013 RMK AO2 P0004 T00610050
Observed
Feb-22 @ 18:27 UTC
Wind
  • 100° at 13 KTS
Visibility
1 3/4 SM
Flight Rules
IFR
Conditions
Rain, Mist
Cloud Levels
  • Overcast at 600' AGL
Temperature
C / 43°F
Dewpoint
C / 41°F
Humidity
93%
Altimeter
30.13" Hg
Pressure
1020.32 hPa
Current Rain
0.04"
Previous

1 hour ago

KLIT 221753Z 07009KT 3SM -RA BR OVC006 06/05 A3015 RMK AO2 SLP215 P0004 60015 T00610050 10067 20056 56009
Observed
Feb-22 @ 17:53 UTC
Wind
  • 070° at 9 KTS
Visibility
3 SM
Flight Rules
IFR
Conditions
Light Rain, Mist
Cloud Levels
  • Overcast at 600' AGL
Temperature
C / 43°F
Dewpoint
C / 41°F
Humidity
93%
Altimeter
30.15" Hg
Pressure
1021.5 hPa
Current Rain
0.04"